Last reported at 2014-Apr-17 03:32 UTC.
Time now 2014-Apr-17 12:40 UTC

Location: N 61°12' E 001°06'.
View on Google Maps.

See reports from other nearby stations

Tides Stations Pressure Air Temp Water Temp Dewpoint Dewpoint depression Visibility Wind Speed Wind Dir Waves Ship positions

  
sailing weather and tide predictions

Current Weather: station 63103

date/time (UTC)wind fromknots sea level pressurealtimeterstation pressurevisibilityair tempwater tempwave heightnotes
2014-Apr-17 11:00 300 10 6.3 2.9
2014-Apr-17 10:00 270 13 6.3 2.8
2014-Apr-17 09:00 240 10 5.6 2.5
2014-Apr-17 08:00 250 11 5.6 2.5
2014-Apr-17 07:00 240 16 6.6 2.5
2014-Apr-17 06:00 250 14 6.1 2.6
2014-Apr-17 05:00 250 13 5.3 2.4
2014-Apr-17 04:00 220 9 6.6 2.5
2014-Apr-17 03:00 6.4 2.5
2014-Apr-17 02:00 7.5 2.6
2014-Apr-17 01:00 7.4 2.8
2014-Apr-17 00:00 7.6 2.9
2014-Apr-16 23:00 7.4 3.0
2014-Apr-16 22:00 7.2 2.8
2014-Apr-16 21:00 7.5 3.2
2014-Apr-16 08:00 210 23 8.4 2.5
2014-Apr-16 07:00 200 27 8.4 2.6
2014-Apr-16 06:00 7.9 2.7
2014-Apr-16 05:00 7.5 2.6
2014-Apr-16 04:00 180 27 7.3 2.8
2014-Apr-16 03:00 180 27 7.1 2.9
2014-Apr-16 02:00 190 26 7.1 2.7
2014-Apr-16 01:00 190 24 7.3 2.6
2014-Apr-16 00:00 190 25 7.4 2.5
2014-Apr-15 23:00 200 24 7.4 2.4
2014-Apr-15 22:00 200 22 7.4 2.3
2014-Apr-15 21:00 200 22 7.4 2.4
2014-Apr-15 20:00 200 22 7.2 2.4
2014-Apr-15 19:00 200 20 7.2 2.5
2014-Apr-15 18:00 200 22 7.0 2.2
2014-Apr-15 17:00 200 22 7.0 2.4
2014-Apr-15 16:00 200 20 7.0 2.4
2014-Apr-15 15:00 210 22 7.0 2.4
2014-Apr-15 14:00 210 22 7.1 2.4
2014-Apr-15 13:00 210 22 7.0 2.4
2014-Apr-15 12:00 210 20 7.0 2.5